createdAt,value
2022-10-24T00:00:58.137Z,6.36
2022-10-24T00:03:25.190Z,6.36
2022-10-24T00:05:52.486Z,6.34
2022-10-24T00:08:18.898Z,6.34
2022-10-24T00:10:47.559Z,6.34
2022-10-24T00:13:16.193Z,6.36
2022-10-24T00:15:48.638Z,6.38
2022-10-24T00:18:16.561Z,6.39
2022-10-24T00:23:15.539Z,6.45
2022-10-24T00:25:42.383Z,6.46
2022-10-24T00:28:09.023Z,6.47
2022-10-24T00:30:35.565Z,6.48
2022-10-24T00:33:02.128Z,6.48
2022-10-24T00:35:28.947Z,6.49
2022-10-24T00:37:56.310Z,6.49
2022-10-24T00:40:22.958Z,6.50
2022-10-24T00:42:50.006Z,6.51
2022-10-24T00:45:44.282Z,6.50
2022-10-24T00:48:28.551Z,6.51
2022-10-24T00:51:02.822Z,6.50
2022-10-24T00:53:32.827Z,6.51
2022-10-24T00:56:02.202Z,6.51
2022-10-24T00:58:32.557Z,6.50
2022-10-24T01:00:59.992Z,6.51
2022-10-24T01:03:27.070Z,6.49
2022-10-24T01:06:24.912Z,6.46
2022-10-24T01:09:22.890Z,6.44
2022-10-24T01:12:09.131Z,6.44
2022-10-24T01:15:04.000Z,6.43
2022-10-24T01:17:52.145Z,6.40
2022-10-24T01:20:34.643Z,6.39
2022-10-24T01:23:12.172Z,6.39
2022-10-24T01:26:01.866Z,6.38
2022-10-24T01:28:35.448Z,6.36
2022-10-24T01:31:12.237Z,6.37
2022-10-24T01:33:46.290Z,6.37
2022-10-24T01:36:17.193Z,6.38
2022-10-24T01:39:16.094Z,6.36
2022-10-24T01:41:44.493Z,6.34
2022-10-24T01:44:19.618Z,6.33
2022-10-24T01:46:55.654Z,6.35
2022-10-24T01:49:26.752Z,6.35
2022-10-24T01:51:57.570Z,6.39
2022-10-24T01:54:24.720Z,6.44
2022-10-24T01:56:51.673Z,6.46
2022-10-24T01:59:27.235Z,6.49
2022-10-24T02:02:35.325Z,6.51
2022-10-24T02:05:14.678Z,6.51
2022-10-24T02:07:46.029Z,6.53
2022-10-24T02:10:17.073Z,6.53
2022-10-24T02:12:49.760Z,6.54
2022-10-24T02:15:24.453Z,6.54
2022-10-24T02:17:52.257Z,6.54
2022-10-24T02:20:28.391Z,6.55
2022-10-24T02:23:01.111Z,6.55
2022-10-24T02:25:34.688Z,6.53
2022-10-24T02:28:08.436Z,6.51
2022-10-24T02:30:41.521Z,6.48
2022-10-24T02:33:09.910Z,6.45
2022-10-24T02:35:39.006Z,6.43
2022-10-24T02:38:27.303Z,6.43
2022-10-24T02:40:55.833Z,6.42
2022-10-24T02:43:22.688Z,6.41
2022-10-24T02:45:54.917Z,6.42
2022-10-24T02:48:25.308Z,6.42
2022-10-24T02:53:24.925Z,6.42
2022-10-24T02:55:51.540Z,6.41
2022-10-24T02:58:18.004Z,6.42
2022-10-24T03:00:44.574Z,6.42
2022-10-24T03:03:11.091Z,6.45
2022-10-24T03:05:37.629Z,6.45
2022-10-24T03:08:04.530Z,6.44
2022-10-24T03:10:31.551Z,6.45
2022-10-24T03:12:58.074Z,6.45
2022-10-24T03:15:24.563Z,6.46
2022-10-24T03:17:51.012Z,6.50
2022-10-24T03:20:17.590Z,6.55
2022-10-24T03:22:44.336Z,6.56
2022-10-24T03:25:10.874Z,6.57
2022-10-24T03:27:38.150Z,6.57
2022-10-24T03:30:05.298Z,6.56
2022-10-24T03:32:31.956Z,6.55
2022-10-24T03:34:58.463Z,6.54
2022-10-24T03:37:24.931Z,6.52
2022-10-24T03:39:51.440Z,6.49
2022-10-24T03:42:17.989Z,6.47
2022-10-24T03:44:44.730Z,6.46
2022-10-24T03:47:11.433Z,6.48
2022-10-24T03:49:38.219Z,6.55
2022-10-24T03:52:05.377Z,6.60
2022-10-24T03:54:31.849Z,6.64
2022-10-24T03:56:58.411Z,6.65
2022-10-24T03:59:24.888Z,6.65
2022-10-24T04:01:51.478Z,6.63
2022-10-24T04:04:18.084Z,6.63
2022-10-24T04:06:44.610Z,6.63
2022-10-24T04:09:11.264Z,6.62
2022-10-24T04:11:38.005Z,6.61
2022-10-24T04:14:05.435Z,6.61
2022-10-24T04:16:31.998Z,6.59
2022-10-24T04:18:58.448Z,6.58
2022-10-24T04:21:24.970Z,6.55
2022-10-24T04:23:51.715Z,6.54
2022-10-24T04:26:19.279Z,6.53
2022-10-24T04:28:45.814Z,6.53
2022-10-24T04:31:13.277Z,6.55
2022-10-24T04:33:39.716Z,6.58
2022-10-24T04:36:06.867Z,6.61
2022-10-24T04:38:33.786Z,6.64
2022-10-24T04:41:01.095Z,6.68
2022-10-24T04:43:27.850Z,6.72
2022-10-24T04:45:54.350Z,6.77
2022-10-24T04:48:21.424Z,6.83
2022-10-24T04:50:48.456Z,6.89
2022-10-24T04:53:15.713Z,6.94
2022-10-24T04:55:43.173Z,7.00
2022-10-24T04:58:09.811Z,7.04
2022-10-24T05:00:36.694Z,7.09
2022-10-24T05:03:03.709Z,7.11
2022-10-24T05:05:30.171Z,7.14
2022-10-24T05:07:57.110Z,7.17
2022-10-24T05:10:23.639Z,7.22
2022-10-24T05:12:50.263Z,7.25
2022-10-24T05:15:16.823Z,7.28
2022-10-24T05:17:43.268Z,7.32
2022-10-24T05:20:10.517Z,7.37
2022-10-24T05:22:37.055Z,7.42
2022-10-24T05:25:04.760Z,7.46
2022-10-24T05:27:31.293Z,7.50
2022-10-24T05:29:57.724Z,7.56
2022-10-24T05:32:25.289Z,7.60
2022-10-24T05:34:52.117Z,7.65
2022-10-24T05:37:18.793Z,7.72
2022-10-24T05:39:45.606Z,7.77
2022-10-24T05:42:12.145Z,7.82
2022-10-24T05:44:38.892Z,7.88
2022-10-24T05:47:05.395Z,7.95
2022-10-24T05:49:31.979Z,8.01
2022-10-24T05:51:58.722Z,8.05
2022-10-24T05:54:30.134Z,8.10
2022-10-24T05:57:04.601Z,8.15
2022-10-24T05:59:31.146Z,8.23
2022-10-24T06:01:58.196Z,8.31
2022-10-24T06:04:24.768Z,8.40
2022-10-24T06:06:51.197Z,8.49
2022-10-24T06:09:17.742Z,8.58
2022-10-24T06:11:44.265Z,8.65
2022-10-24T06:14:11.216Z,8.72
2022-10-24T06:16:37.761Z,8.76
2022-10-24T06:19:04.217Z,8.82
2022-10-24T06:21:30.767Z,8.89
2022-10-24T06:23:57.640Z,8.94
2022-10-24T06:26:24.359Z,8.98
2022-10-24T06:28:51.080Z,8.98
2022-10-24T06:31:17.510Z,9.04
2022-10-24T06:33:44.031Z,9.11
2022-10-24T06:36:11.830Z,9.19
2022-10-24T06:38:40.187Z,9.28
2022-10-24T06:41:08.533Z,9.40
2022-10-24T06:43:36.674Z,9.54
2022-10-24T06:46:07.715Z,9.69
2022-10-24T06:48:35.590Z,9.84
2022-10-24T06:51:02.541Z,9.94
2022-10-24T06:53:29.409Z,10.01
2022-10-24T06:56:00.356Z,10.07
2022-10-24T06:58:30.967Z,10.20
2022-10-24T07:00:57.415Z,10.37
2022-10-24T07:03:23.939Z,10.51
2022-10-24T07:05:50.578Z,10.64
2022-10-24T07:08:17.119Z,10.76
2022-10-24T07:10:43.657Z,10.83
2022-10-24T07:13:10.099Z,10.90
2022-10-24T07:15:36.544Z,10.95
2022-10-24T07:18:03.279Z,10.98
2022-10-24T07:20:29.755Z,11.03
2022-10-24T07:22:56.301Z,11.03
2022-10-24T07:25:22.797Z,11.08
2022-10-24T07:27:49.347Z,11.16
2022-10-24T07:30:17.417Z,11.30
2022-10-24T07:32:44.100Z,11.51
2022-10-24T07:35:14.175Z,11.85
2022-10-24T07:37:40.606Z,12.05
2022-10-24T07:40:08.049Z,12.16
2022-10-24T07:42:34.522Z,12.33
2022-10-24T07:45:01.061Z,12.80
2022-10-24T07:47:27.602Z,13.47
2022-10-24T07:49:54.243Z,14.07
2022-10-24T07:52:20.681Z,14.43
2022-10-24T07:54:47.121Z,14.71
2022-10-24T07:57:13.561Z,14.85
2022-10-24T07:59:42.457Z,14.95
2022-10-24T08:02:13.809Z,15.03
2022-10-24T08:04:41.067Z,15.19
2022-10-24T08:07:08.321Z,15.43
2022-10-24T08:09:38.034Z,15.71
2022-10-24T08:12:04.726Z,15.99
2022-10-24T08:14:36.766Z,16.16
2022-10-24T08:17:04.031Z,16.24
2022-10-24T08:19:31.464Z,16.40
2022-10-24T08:21:57.944Z,16.64
2022-10-24T08:24:24.849Z,16.92
2022-10-24T08:26:51.721Z,17.19
2022-10-24T08:29:18.750Z,17.43
2022-10-24T08:31:45.299Z,17.74
2022-10-24T08:34:11.806Z,18.04
2022-10-24T08:36:38.222Z,18.32
2022-10-24T08:39:04.822Z,18.65
2022-10-24T08:41:38.032Z,18.91
2022-10-24T08:44:16.617Z,19.13
2022-10-24T08:46:46.653Z,19.40
2022-10-24T08:49:20.360Z,19.62
2022-10-24T08:51:55.315Z,19.88
2022-10-24T08:54:26.654Z,19.95
2022-10-24T08:56:55.861Z,20.04
2022-10-24T08:59:22.600Z,20.20
2022-10-24T09:02:04.177Z,20.31
2022-10-24T09:04:44.676Z,20.57
2022-10-24T09:07:22.057Z,20.93
2022-10-24T09:09:51.596Z,21.38
2022-10-24T09:12:20.984Z,21.78
2022-10-24T09:14:57.956Z,22.09
2022-10-24T09:17:33.045Z,22.29
2022-10-24T09:20:07.248Z,22.53
2022-10-24T09:22:36.792Z,22.74
2022-10-24T09:25:05.743Z,22.81
2022-10-24T09:27:38.070Z,22.92
2022-10-24T09:30:07.957Z,23.07
2022-10-24T09:32:36.507Z,23.10
2022-10-24T09:35:20.137Z,22.99
2022-10-24T09:37:53.274Z,22.90
2022-10-24T09:40:29.852Z,22.84
2022-10-24T09:43:16.263Z,22.73
2022-10-24T09:46:00.885Z,22.51
2022-10-24T09:48:52.692Z,22.50
2022-10-24T09:51:43.733Z,22.40
2022-10-24T09:54:26.448Z,22.37
2022-10-24T09:57:02.234Z,22.30
2022-10-24T09:59:39.056Z,21.92
2022-10-24T10:02:11.985Z,21.56
2022-10-24T10:04:39.443Z,21.31
2022-10-24T10:07:25.384Z,21.30
2022-10-24T10:09:57.765Z,21.37
2022-10-24T10:12:30.399Z,21.41
2022-10-24T10:14:57.266Z,21.38
2022-10-24T10:17:26.986Z,21.50
2022-10-24T10:19:55.238Z,21.75
2022-10-24T10:22:28.442Z,21.98
2022-10-24T10:24:56.617Z,22.13
2022-10-24T10:27:28.143Z,22.18
2022-10-24T10:30:13.247Z,22.16
2022-10-24T10:32:54.841Z,22.04
2022-10-24T10:35:30.599Z,21.86
2022-10-24T10:38:11.990Z,21.73
2022-10-24T10:40:45.085Z,21.70
2022-10-24T10:43:39.903Z,21.64
2022-10-24T10:46:17.278Z,21.59
2022-10-24T10:49:05.324Z,21.50
2022-10-24T10:51:50.251Z,21.29
2022-10-24T10:54:43.568Z,21.20
2022-10-24T10:57:17.513Z,21.03
2022-10-24T11:00:03.015Z,20.96
2022-10-24T11:02:52.897Z,20.92
2022-10-24T11:05:32.114Z,20.83
2022-10-24T11:08:19.178Z,20.76
2022-10-24T11:11:00.847Z,20.62
2022-10-24T11:13:34.277Z,20.52
2022-10-24T11:16:05.773Z,20.54
2022-10-24T11:18:38.922Z,20.50
2022-10-24T11:21:11.235Z,20.53
2022-10-24T11:23:49.545Z,20.55
2022-10-24T11:26:27.192Z,20.44
2022-10-24T11:29:11.264Z,20.23
2022-10-24T11:31:46.551Z,19.82
2022-10-24T11:34:28.698Z,19.63
2022-10-24T11:37:15.915Z,19.38
2022-10-24T11:39:59.579Z,19.19
2022-10-24T11:42:51.578Z,19.13
2022-10-24T11:45:19.849Z,19.10
2022-10-24T11:48:16.923Z,18.99
2022-10-24T11:51:13.436Z,18.76
2022-10-24T11:53:49.409Z,18.53
2022-10-24T11:56:27.522Z,18.37
2022-10-24T11:59:13.056Z,18.25
2022-10-24T12:01:55.010Z,18.13
2022-10-24T12:05:07.399Z,18.10
2022-10-24T12:07:36.763Z,18.10
2022-10-24T12:10:09.267Z,18.10
2022-10-24T12:12:58.894Z,18.08
2022-10-24T12:15:48.375Z,18.00
2022-10-24T12:18:35.496Z,17.95
2022-10-24T12:21:08.488Z,17.93
2022-10-24T12:23:35.836Z,17.84
2022-10-24T12:26:27.240Z,17.76
2022-10-24T12:28:56.376Z,17.66
2022-10-24T12:31:34.462Z,17.63
2022-10-24T12:34:16.466Z,17.65
2022-10-24T12:37:01.746Z,17.75
2022-10-24T12:39:30.034Z,17.78
2022-10-24T12:41:56.576Z,17.75
2022-10-24T12:44:25.653Z,17.74
2022-10-24T12:46:54.007Z,17.73
2022-10-24T12:49:30.029Z,17.72
2022-10-24T12:51:57.620Z,17.74
2022-10-24T12:54:45.634Z,17.73
2022-10-24T12:57:12.043Z,17.70
2022-10-24T12:59:53.730Z,17.77
2022-10-24T13:02:20.377Z,17.85
2022-10-24T13:04:56.469Z,17.85
2022-10-24T13:07:26.034Z,17.86
2022-10-24T13:10:18.833Z,17.89
2022-10-24T13:12:59.922Z,17.86
2022-10-24T13:15:41.175Z,17.83
2022-10-24T13:18:16.517Z,17.79
2022-10-24T13:20:46.265Z,17.79
2022-10-24T13:23:26.553Z,17.87
2022-10-24T13:25:56.511Z,17.97
2022-10-24T13:28:26.116Z,18.05
2022-10-24T13:30:58.531Z,18.09
2022-10-24T13:33:31.299Z,18.06
2022-10-24T13:36:13.142Z,18.03
2022-10-24T13:38:42.112Z,18.01
2022-10-24T13:41:12.732Z,18.00
2022-10-24T13:43:46.141Z,17.98
2022-10-24T13:46:25.418Z,17.97
2022-10-24T13:48:53.261Z,17.96
2022-10-24T13:51:38.942Z,17.98
2022-10-24T13:54:16.061Z,18.05
2022-10-24T13:56:45.503Z,18.07
2022-10-24T13:59:29.593Z,18.10
2022-10-24T14:01:58.748Z,18.07
2022-10-24T14:04:27.302Z,17.98
2022-10-24T14:07:01.229Z,17.91
2022-10-24T14:09:27.937Z,17.84
2022-10-24T14:11:54.681Z,17.76
2022-10-24T14:14:23.984Z,17.62
2022-10-24T14:17:05.977Z,17.51
2022-10-24T14:19:33.708Z,17.40
2022-10-24T14:22:02.243Z,17.32
2022-10-24T14:24:30.640Z,17.21
2022-10-24T14:26:57.385Z,17.11
2022-10-24T14:29:27.246Z,17.07
2022-10-24T14:31:56.594Z,16.99
2022-10-24T14:34:23.856Z,16.93
2022-10-24T14:36:50.910Z,16.87
2022-10-24T14:39:21.790Z,16.80
2022-10-24T14:41:48.294Z,16.72
2022-10-24T14:44:16.882Z,16.66
2022-10-24T14:46:45.429Z,16.61
2022-10-24T14:49:26.979Z,16.59
2022-10-24T14:52:01.097Z,16.54
2022-10-24T14:54:32.943Z,16.47
2022-10-24T14:57:01.328Z,16.38
2022-10-24T14:59:36.454Z,16.28
2022-10-24T15:02:43.522Z,16.20
2022-10-24T15:05:27.585Z,16.10
2022-10-24T15:08:21.043Z,16.03
2022-10-24T15:10:46.948Z,15.96
2022-10-24T15:13:21.128Z,15.85
2022-10-24T15:15:51.753Z,15.75
2022-10-24T15:18:34.659Z,15.62
2022-10-24T15:21:02.936Z,15.48
2022-10-24T15:23:33.142Z,15.37
2022-10-24T15:26:02.298Z,15.29
2022-10-24T15:28:49.003Z,15.18
2022-10-24T15:31:19.237Z,15.05
2022-10-24T15:33:46.616Z,14.93
2022-10-24T15:36:21.973Z,14.80
2022-10-24T15:38:53.187Z,14.65
2022-10-24T15:41:19.610Z,14.51
2022-10-24T15:43:46.049Z,14.38
2022-10-24T15:46:12.476Z,14.24
2022-10-24T15:48:39.039Z,14.08
2022-10-24T15:51:06.117Z,13.90
2022-10-24T15:53:32.838Z,13.75
2022-10-24T15:55:59.483Z,13.62
2022-10-24T15:58:26.017Z,13.49
2022-10-24T16:00:52.917Z,13.36
2022-10-24T16:03:23.600Z,13.26
2022-10-24T16:05:54.442Z,13.15
2022-10-24T16:08:21.215Z,13.04
2022-10-24T16:10:50.907Z,12.91
2022-10-24T16:13:20.673Z,12.80
2022-10-24T16:15:48.397Z,12.70
2022-10-24T16:18:15.642Z,12.61
2022-10-24T16:20:42.693Z,12.53
2022-10-24T16:23:13.844Z,12.45
2022-10-24T16:25:40.387Z,12.36
2022-10-24T16:28:07.889Z,12.29
2022-10-24T16:30:37.143Z,12.25
2022-10-24T16:33:03.786Z,12.17
2022-10-24T16:35:33.069Z,12.10
2022-10-24T16:38:01.074Z,12.03
2022-10-24T16:40:29.123Z,11.95
2022-10-24T16:42:58.348Z,11.86
2022-10-24T16:45:26.111Z,11.80
2022-10-24T16:47:52.655Z,11.73
2022-10-24T16:50:22.980Z,11.67
2022-10-24T16:52:54.712Z,11.62
2022-10-24T16:55:22.200Z,11.58
2022-10-24T16:57:49.234Z,11.54
2022-10-24T17:00:18.154Z,11.51
2022-10-24T17:02:49.502Z,11.46
2022-10-24T17:05:16.754Z,11.43
2022-10-24T17:07:43.469Z,11.40
2022-10-24T17:10:11.778Z,11.39
2022-10-24T17:12:40.880Z,11.38
2022-10-24T17:15:08.545Z,11.36
2022-10-24T17:17:36.080Z,11.32
2022-10-24T17:20:04.605Z,11.31
2022-10-24T17:24:58.594Z,11.31
2022-10-24T17:27:25.549Z,11.29
2022-10-24T17:29:52.187Z,11.30
2022-10-24T17:32:18.930Z,11.31
2022-10-24T17:34:46.386Z,11.29
2022-10-24T17:37:40.677Z,11.27
2022-10-24T17:40:15.100Z,11.23
2022-10-24T17:42:42.977Z,11.22
2022-10-24T17:45:15.430Z,11.21
2022-10-24T17:47:42.454Z,11.19
2022-10-24T17:50:10.337Z,11.18
2022-10-24T17:52:37.254Z,11.17
2022-10-24T17:55:04.168Z,11.17
2022-10-24T17:57:30.800Z,11.16
2022-10-24T17:59:57.240Z,11.15
2022-10-24T18:02:23.949Z,11.15
2022-10-24T18:04:51.778Z,11.15
2022-10-24T18:07:18.496Z,11.14
2022-10-24T18:09:45.034Z,11.14
2022-10-24T18:12:11.487Z,11.14
2022-10-24T18:14:38.117Z,11.14
2022-10-24T18:17:04.757Z,11.12
2022-10-24T18:19:33.150Z,11.11
2022-10-24T18:21:59.887Z,11.10
2022-10-24T18:24:26.425Z,11.08
2022-10-24T18:26:53.168Z,11.07
2022-10-24T18:29:19.710Z,11.06
2022-10-24T18:31:46.354Z,11.06
2022-10-24T18:34:12.995Z,11.05
2022-10-24T18:36:39.536Z,11.04
2022-10-24T18:39:06.591Z,11.03
2022-10-24T18:41:54.372Z,11.03
2022-10-24T18:44:32.946Z,11.03
2022-10-24T18:47:05.930Z,11.00
2022-10-24T18:49:35.116Z,10.97
2022-10-24T18:52:13.834Z,10.94
2022-10-24T18:55:10.111Z,10.89
2022-10-24T18:57:36.854Z,10.82
2022-10-24T19:00:06.163Z,10.76
2022-10-24T19:02:51.431Z,10.70
2022-10-24T19:05:21.242Z,10.65
2022-10-24T19:07:49.184Z,10.59
2022-10-24T19:10:22.091Z,10.55
2022-10-24T19:12:49.023Z,10.48
2022-10-24T19:15:17.350Z,10.41
2022-10-24T19:17:44.598Z,10.38
2022-10-24T19:20:16.903Z,10.35
2022-10-24T19:22:43.621Z,10.30
2022-10-24T19:25:11.077Z,10.25
2022-10-24T19:27:37.720Z,10.23
2022-10-24T19:30:04.978Z,10.19
2022-10-24T19:32:31.970Z,10.16
2022-10-24T19:34:58.573Z,10.16
2022-10-24T19:37:25.521Z,10.15
2022-10-24T19:39:52.497Z,10.14
2022-10-24T19:42:19.265Z,10.13
2022-10-24T19:44:45.892Z,10.13
2022-10-24T19:47:12.378Z,10.13
2022-10-24T19:49:38.838Z,10.14
2022-10-24T19:52:05.377Z,10.14
2022-10-24T19:54:31.917Z,10.13
2022-10-24T19:56:58.342Z,10.17
2022-10-24T19:59:24.896Z,10.20
2022-10-24T20:01:51.610Z,10.23
2022-10-24T20:04:18.796Z,10.27
2022-10-24T20:06:45.338Z,10.28
2022-10-24T20:09:12.067Z,10.29
2022-10-24T20:11:38.501Z,10.31
2022-10-24T20:14:04.925Z,10.33
2022-10-24T20:16:31.604Z,10.34
2022-10-24T20:18:58.026Z,10.35
2022-10-24T20:21:24.483Z,10.38
2022-10-24T20:23:51.055Z,10.39
2022-10-24T20:26:24.341Z,10.40
2022-10-24T20:28:52.826Z,10.41
2022-10-24T20:31:24.468Z,10.42
2022-10-24T20:33:51.823Z,10.44
2022-10-24T20:36:18.856Z,10.45
2022-10-24T20:38:45.446Z,10.43
2022-10-24T20:41:11.958Z,10.40
2022-10-24T20:43:38.555Z,10.38
2022-10-24T20:46:06.673Z,10.35
2022-10-24T20:48:34.467Z,10.34
2022-10-24T20:51:09.787Z,10.31
2022-10-24T20:53:37.264Z,10.29
2022-10-24T20:56:09.215Z,10.27
2022-10-24T20:58:38.447Z,10.26
2022-10-24T21:01:07.134Z,10.25
2022-10-24T21:03:34.669Z,10.24
2022-10-24T21:06:01.575Z,10.24
2022-10-24T21:08:28.012Z,10.23
2022-10-24T21:10:54.456Z,10.23
2022-10-24T21:13:21.051Z,10.23
2022-10-24T21:15:47.487Z,10.24
2022-10-24T21:18:13.924Z,10.24
2022-10-24T21:20:40.466Z,10.26
2022-10-24T21:23:06.905Z,10.26
2022-10-24T21:25:33.349Z,10.28
2022-10-24T21:27:59.928Z,10.29
2022-10-24T21:30:26.349Z,10.31
2022-10-24T21:32:52.856Z,10.34
2022-10-24T21:35:19.294Z,10.35
2022-10-24T21:37:46.019Z,10.37
2022-10-24T21:40:12.903Z,10.38
2022-10-24T21:42:39.430Z,10.39
2022-10-24T21:45:06.583Z,10.40
2022-10-24T21:47:33.023Z,10.40
2022-10-24T21:49:59.484Z,10.41
2022-10-24T21:52:26.003Z,10.44
2022-10-24T21:54:52.512Z,10.49
2022-10-24T21:57:18.978Z,10.52
2022-10-24T21:59:45.455Z,10.53
2022-10-24T22:02:12.111Z,10.53
2022-10-24T22:04:38.804Z,10.54
2022-10-24T22:07:05.335Z,10.56
2022-10-24T22:09:31.884Z,10.57
2022-10-24T22:11:58.529Z,10.57
2022-10-24T22:14:25.398Z,10.55
2022-10-24T22:16:52.206Z,10.55
2022-10-24T22:19:19.072Z,10.54
2022-10-24T22:21:48.783Z,10.55
2022-10-24T22:24:21.657Z,10.57
2022-10-24T22:26:49.226Z,10.60
2022-10-24T22:29:21.847Z,10.64
2022-10-24T22:31:49.556Z,10.68
2022-10-24T22:34:18.957Z,10.70
2022-10-24T22:36:45.437Z,10.72
2022-10-24T22:39:15.535Z,10.73
2022-10-24T22:41:43.649Z,10.73
2022-10-24T22:44:11.969Z,10.74
2022-10-24T22:46:50.441Z,10.76
2022-10-24T22:49:35.606Z,10.77
2022-10-24T22:52:02.601Z,10.78
2022-10-24T22:54:34.710Z,10.77
2022-10-24T22:57:02.099Z,10.79
2022-10-24T22:59:28.823Z,10.78
2022-10-24T23:02:26.146Z,10.79
2022-10-24T23:05:06.913Z,10.79
2022-10-24T23:07:52.346Z,10.81
2022-10-24T23:10:21.499Z,10.83
2022-10-24T23:12:49.346Z,10.85
2022-10-24T23:15:18.733Z,10.86
2022-10-24T23:17:46.846Z,10.87
2022-10-24T23:20:25.749Z,10.88
2022-10-24T23:23:08.891Z,10.90
2022-10-24T23:25:46.945Z,10.93
2022-10-24T23:28:35.145Z,10.96
2022-10-24T23:33:33.972Z,11.00
2022-10-24T23:36:00.842Z,11.01
2022-10-24T23:38:27.931Z,11.01
2022-10-24T23:40:55.120Z,11.01
2022-10-24T23:43:22.266Z,11.01
2022-10-24T23:45:54.536Z,11.02
2022-10-24T23:48:49.105Z,11.02
2022-10-24T23:51:28.720Z,11.01
2022-10-24T23:53:56.141Z,11.02
2022-10-24T23:56:25.548Z,11.02
2022-10-24T23:58:52.707Z,11.02
